Okazaki, Japan
Current Conditions -  °F | °C
As of 6:00 PM on Sunday 23 Nov 2014 (Local Time) from RJGG Reporting Station
Broken Clouds Broken Clouds  
Wind Chill: 61°   Ceiling: Unl
Heat Index: 61°   Visibility: 6mi
Dew Point: 46°   Wind: 16mph
Humidity: 59%   Direction: 290°WNW
Pressure: 30.18"   Gusts: NA
Location:  34.96°N, 137.16°E
Report Text: RJGG 230900Z 29014KT 9999 FEW030 BKN/// 16/08 Q1022 NOSIG
Loading
Personal Weather Stations






























Interactive Weather Map New forecast layout! Learn more

10-Day Weather Forecast

Advertisements
Track Severe Weather on mobile